sensor_id;sensor_type;location;lat;lon;timestamp;temperature;humidity
50947;DHT22;36955;47.416;7.716;2022-12-29T00:01:15;11.70;99.90
50947;DHT22;36955;47.416;7.716;2022-12-29T00:03:41;11.50;99.90
50947;DHT22;36955;47.416;7.716;2022-12-29T00:06:07;11.40;99.90
50947;DHT22;36955;47.416;7.716;2022-12-29T00:08:33;11.40;99.90
50947;DHT22;36955;47.416;7.716;2022-12-29T00:10:59;11.40;99.90
50947;DHT22;36955;47.416;7.716;2022-12-29T00:13:25;11.50;99.90
50947;DHT22;36955;47.416;7.716;2022-12-29T00:15:51;11.50;99.90
50947;DHT22;36955;47.416;7.716;2022-12-29T00:18:17;11.40;99.90
50947;DHT22;36955;47.416;7.716;2022-12-29T00:20:43;11.40;99.90
50947;DHT22;36955;47.416;7.716;2022-12-29T00:23:09;11.40;99.90
50947;DHT22;36955;47.416;7.716;2022-12-29T00:25:36;11.50;99.90
50947;DHT22;36955;47.416;7.716;2022-12-29T00:28:02;11.50;99.90
50947;DHT22;36955;47.416;7.716;2022-12-29T00:30:29;11.50;99.90
50947;DHT22;36955;47.416;7.716;2022-12-29T00:32:55;11.60;99.90
50947;DHT22;36955;47.416;7.716;2022-12-29T00:37:50;11.60;99.90
50947;DHT22;36955;47.416;7.716;2022-12-29T00:40:17;11.60;99.90
50947;DHT22;36955;47.416;7.716;2022-12-29T00:42:43;11.60;99.90
50947;DHT22;36955;47.416;7.716;2022-12-29T00:45:09;11.60;99.90
50947;DHT22;36955;47.416;7.716;2022-12-29T00:47:35;11.50;99.90
50947;DHT22;36955;47.416;7.716;2022-12-29T00:50:01;11.50;99.90
50947;DHT22;36955;47.416;7.716;2022-12-29T00:52:27;11.40;99.90
50947;DHT22;36955;47.416;7.716;2022-12-29T00:54:53;11.30;99.90
50947;DHT22;36955;47.416;7.716;2022-12-29T00:57:19;11.30;99.90
50947;DHT22;36955;47.416;7.716;2022-12-29T00:59:45;11.30;99.90
50947;DHT22;36955;47.416;7.716;2022-12-29T01:02:11;11.30;99.90
50947;DHT22;36955;47.416;7.716;2022-12-29T01:04:37;11.50;99.90
50947;DHT22;36955;47.416;7.716;2022-12-29T01:07:04;11.60;99.90
50947;DHT22;36955;47.416;7.716;2022-12-29T01:09:31;11.70;99.90
50947;DHT22;36955;47.416;7.716;2022-12-29T01:11:57;11.60;99.90
50947;DHT22;36955;47.416;7.716;2022-12-29T01:14:24;11.50;99.90
50947;DHT22;36955;47.416;7.716;2022-12-29T01:16:50;11.50;99.90
50947;DHT22;36955;47.416;7.716;2022-12-29T01:19:17;11.60;99.90
50947;DHT22;36955;47.416;7.716;2022-12-29T01:21:44;11.60;99.90
50947;DHT22;36955;47.416;7.716;2022-12-29T01:24:11;11.70;99.90
50947;DHT22;36955;47.416;7.716;2022-12-29T01:26:37;11.70;99.90
50947;DHT22;36955;47.416;7.716;2022-12-29T01:29:03;11.80;99.90
50947;DHT22;36955;47.416;7.716;2022-12-29T01:31:29;12.00;99.90
50947;DHT22;36955;47.416;7.716;2022-12-29T01:33:55;12.00;99.90
50947;DHT22;36955;47.416;7.716;2022-12-29T01:36:21;11.90;99.90
50947;DHT22;36955;47.416;7.716;2022-12-29T01:38:47;11.90;99.90
50947;DHT22;36955;47.416;7.716;2022-12-29T01:41:15;11.90;99.90
50947;DHT22;36955;47.416;7.716;2022-12-29T01:43:53;11.90;99.90
50947;DHT22;36955;47.416;7.716;2022-12-29T01:48:55;11.80;99.90
50947;DHT22;36955;47.416;7.716;2022-12-29T01:51:23;11.90;99.90
50947;DHT22;36955;47.416;7.716;2022-12-29T01:53:51;12.00;99.90
50947;DHT22;36955;47.416;7.716;2022-12-29T01:56:19;12.00;99.90
50947;DHT22;36955;47.416;7.716;2022-12-29T01:58:48;12.10;99.90
50947;DHT22;36955;47.416;7.716;2022-12-29T02:01:15;12.20;99.90
50947;DHT22;36955;47.416;7.716;2022-12-29T02:03:44;12.20;99.90
50947;DHT22;36955;47.416;7.716;2022-12-29T02:06:37;12.20;99.90
50947;DHT22;36955;47.416;7.716;2022-12-29T02:09:05;12.20;99.90
50947;DHT22;36955;47.416;7.716;2022-12-29T02:11:31;12.20;99.90
50947;DHT22;36955;47.416;7.716;2022-12-29T02:13:58;12.20;99.90
50947;DHT22;36955;47.416;7.716;2022-12-29T02:16:40;12.10;99.90
50947;DHT22;36955;47.416;7.716;2022-12-29T02:30:43;12.00;99.90
50947;DHT22;36955;47.416;7.716;2022-12-29T02:36:20;12.00;99.90
50947;DHT22;36955;47.416;7.716;2022-12-29T02:39:21;12.00;99.90
50947;DHT22;36955;47.416;7.716;2022-12-29T02:41:57;11.90;99.90
50947;DHT22;36955;47.416;7.716;2022-12-29T02:44:46;11.80;99.90
50947;DHT22;36955;47.416;7.716;2022-12-29T02:47:40;11.80;99.90
50947;DHT22;36955;47.416;7.716;2022-12-29T02:50:17;11.80;99.90
50947;DHT22;36955;47.416;7.716;2022-12-29T02:52:50;11.80;99.90
50947;DHT22;36955;47.416;7.716;2022-12-29T02:55:17;11.70;99.90
50947;DHT22;36955;47.416;7.716;2022-12-29T02:57:43;11.70;99.90
50947;DHT22;36955;47.416;7.716;2022-12-29T03:00:13;11.60;99.90
50947;DHT22;36955;47.416;7.716;2022-12-29T03:11:08;11.50;99.90
50947;DHT22;36955;47.416;7.716;2022-12-29T03:13:44;11.50;99.90
50947;DHT22;36955;47.416;7.716;2022-12-29T03:24:04;11.30;99.90
50947;DHT22;36955;47.416;7.716;2022-12-29T03:26:31;11.30;99.90
50947;DHT22;36955;47.416;7.716;2022-12-29T03:28:57;11.30;99.90
50947;DHT22;36955;47.416;7.716;2022-12-29T03:31:23;11.20;99.90
50947;DHT22;36955;47.416;7.716;2022-12-29T03:33:50;11.30;99.90
50947;DHT22;36955;47.416;7.716;2022-12-29T03:36:26;11.20;99.90
50947;DHT22;36955;47.416;7.716;2022-12-29T03:39:20;11.10;99.90
50947;DHT22;36955;47.416;7.716;2022-12-29T03:41:45;11.10;99.90
50947;DHT22;36955;47.416;7.716;2022-12-29T03:44:13;11.10;99.90
50947;DHT22;36955;47.416;7.716;2022-12-29T03:46:39;11.10;99.90
50947;DHT22;36955;47.416;7.716;2022-12-29T03:49:05;11.10;99.90
50947;DHT22;36955;47.416;7.716;2022-12-29T03:51:31;11.10;99.90
50947;DHT22;36955;47.416;7.716;2022-12-29T03:53:57;11.10;99.90
50947;DHT22;36955;47.416;7.716;2022-12-29T03:56:23;11.00;99.90
50947;DHT22;36955;47.416;7.716;2022-12-29T03:58:49;10.90;99.90
50947;DHT22;36955;47.416;7.716;2022-12-29T04:01:15;11.00;99.90
50947;DHT22;36955;47.416;7.716;2022-12-29T04:03:41;10.90;99.90
50947;DHT22;36955;47.416;7.716;2022-12-29T04:06:07;10.90;99.90
50947;DHT22;36955;47.416;7.716;2022-12-29T04:08:33;10.90;99.90
50947;DHT22;36955;47.416;7.716;2022-12-29T04:10:59;10.90;99.90
50947;DHT22;36955;47.416;7.716;2022-12-29T04:13:25;10.80;99.90
50947;DHT22;36955;47.416;7.716;2022-12-29T04:15:51;10.80;99.90
50947;DHT22;36955;47.416;7.716;2022-12-29T04:18:17;10.70;99.90
50947;DHT22;36955;47.416;7.716;2022-12-29T04:20:44;10.70;99.90
50947;DHT22;36955;47.416;7.716;2022-12-29T04:23:11;10.90;99.90
50947;DHT22;36955;47.416;7.716;2022-12-29T04:25:37;11.00;99.90
50947;DHT22;36955;47.416;7.716;2022-12-29T04:28:03;11.10;99.90
50947;DHT22;36955;47.416;7.716;2022-12-29T04:30:29;11.10;99.90
50947;DHT22;36955;47.416;7.716;2022-12-29T04:32:55;11.20;99.90
50947;DHT22;36955;47.416;7.716;2022-12-29T04:35:21;11.30;99.90
50947;DHT22;36955;47.416;7.716;2022-12-29T04:37:47;11.40;99.90
50947;DHT22;36955;47.416;7.716;2022-12-29T04:40:13;11.50;99.90
50947;DHT22;36955;47.416;7.716;2022-12-29T04:42:39;11.60;99.90
50947;DHT22;36955;47.416;7.716;2022-12-29T04:45:05;11.60;99.90
50947;DHT22;36955;47.416;7.716;2022-12-29T04:47:31;11.60;99.90
50947;DHT22;36955;47.416;7.716;2022-12-29T04:49:57;11.60;99.90
50947;DHT22;36955;47.416;7.716;2022-12-29T04:52:23;11.50;99.90
50947;DHT22;36955;47.416;7.716;2022-12-29T04:54:49;11.50;99.90
50947;DHT22;36955;47.416;7.716;2022-12-29T04:57:15;11.40;99.90
50947;DHT22;36955;47.416;7.716;2022-12-29T04:59:41;11.40;99.90
50947;DHT22;36955;47.416;7.716;2022-12-29T05:02:07;11.40;99.90
50947;DHT22;36955;47.416;7.716;2022-12-29T05:04:33;11.30;99.90
50947;DHT22;36955;47.416;7.716;2022-12-29T05:06:59;11.30;99.90
50947;DHT22;36955;47.416;7.716;2022-12-29T05:09:25;11.30;99.90
50947;DHT22;36955;47.416;7.716;2022-12-29T05:11:51;11.30;99.90
50947;DHT22;36955;47.416;7.716;2022-12-29T05:14:17;11.20;99.90
50947;DHT22;36955;47.416;7.716;2022-12-29T05:16:43;11.20;99.90
50947;DHT22;36955;47.416;7.716;2022-12-29T05:19:09;11.10;99.90
50947;DHT22;36955;47.416;7.716;2022-12-29T05:21:35;11.10;99.90
50947;DHT22;36955;47.416;7.716;2022-12-29T05:24:01;11.10;99.90
50947;DHT22;36955;47.416;7.716;2022-12-29T05:26:27;11.10;99.90
50947;DHT22;36955;47.416;7.716;2022-12-29T05:28:53;11.00;99.90
50947;DHT22;36955;47.416;7.716;2022-12-29T05:31:19;11.00;99.90
50947;DHT22;36955;47.416;7.716;2022-12-29T05:33:45;11.00;99.90
50947;DHT22;36955;47.416;7.716;2022-12-29T05:36:12;11.00;99.90
50947;DHT22;36955;47.416;7.716;2022-12-29T05:38:38;11.10;99.90
50947;DHT22;36955;47.416;7.716;2022-12-29T05:41:04;11.10;99.90
50947;DHT22;36955;47.416;7.716;2022-12-29T05:43:30;11.10;99.90
50947;DHT22;36955;47.416;7.716;2022-12-29T05:45:57;11.10;99.90
50947;DHT22;36955;47.416;7.716;2022-12-29T05:48:23;11.10;99.90
50947;DHT22;36955;47.416;7.716;2022-12-29T05:50:50;11.10;99.90
50947;DHT22;36955;47.416;7.716;2022-12-29T05:53:17;11.00;99.90
50947;DHT22;36955;47.416;7.716;2022-12-29T05:55:44;11.00;99.90
50947;DHT22;36955;47.416;7.716;2022-12-29T05:58:11;11.00;99.90
50947;DHT22;36955;47.416;7.716;2022-12-29T06:00:37;11.00;99.90
50947;DHT22;36955;47.416;7.716;2022-12-29T06:03:04;10.90;99.90
50947;DHT22;36955;47.416;7.716;2022-12-29T06:05:30;10.90;99.90
50947;DHT22;36955;47.416;7.716;2022-12-29T06:07:56;10.90;99.90
50947;DHT22;36955;47.416;7.716;2022-12-29T06:10:22;10.90;99.90
50947;DHT22;36955;47.416;7.716;2022-12-29T06:12:48;11.00;99.90
50947;DHT22;36955;47.416;7.716;2022-12-29T06:15:14;10.90;99.90
50947;DHT22;36955;47.416;7.716;2022-12-29T06:17:40;10.90;99.90
50947;DHT22;36955;47.416;7.716;2022-12-29T06:20:07;11.00;99.90
50947;DHT22;36955;47.416;7.716;2022-12-29T06:22:33;11.00;99.90
50947;DHT22;36955;47.416;7.716;2022-12-29T06:24:59;11.00;99.90
50947;DHT22;36955;47.416;7.716;2022-12-29T06:27:25;11.00;99.90
50947;DHT22;36955;47.416;7.716;2022-12-29T06:29:51;11.00;99.90
50947;DHT22;36955;47.416;7.716;2022-12-29T06:32:17;11.10;99.90
50947;DHT22;36955;47.416;7.716;2022-12-29T06:34:43;11.10;99.90
50947;DHT22;36955;47.416;7.716;2022-12-29T06:37:09;11.10;99.90
50947;DHT22;36955;47.416;7.716;2022-12-29T06:39:35;11.10;99.90
50947;DHT22;36955;47.416;7.716;2022-12-29T06:42:01;11.10;99.90
50947;DHT22;36955;47.416;7.716;2022-12-29T06:44:27;11.10;99.90
50947;DHT22;36955;47.416;7.716;2022-12-29T06:46:54;11.10;99.90
50947;DHT22;36955;47.416;7.716;2022-12-29T06:49:20;11.00;99.90
50947;DHT22;36955;47.416;7.716;2022-12-29T06:51:46;10.90;99.90
50947;DHT22;36955;47.416;7.716;2022-12-29T06:54:12;10.80;99.90
50947;DHT22;36955;47.416;7.716;2022-12-29T06:56:38;10.80;99.90
50947;DHT22;36955;47.416;7.716;2022-12-29T06:59:04;10.70;99.90
50947;DHT22;36955;47.416;7.716;2022-12-29T07:01:31;10.70;99.90
50947;DHT22;36955;47.416;7.716;2022-12-29T07:03:57;10.60;99.90
50947;DHT22;36955;47.416;7.716;2022-12-29T07:06:23;10.50;99.90
50947;DHT22;36955;47.416;7.716;2022-12-29T07:08:49;10.50;99.90
50947;DHT22;36955;47.416;7.716;2022-12-29T07:11:15;10.50;99.90
50947;DHT22;36955;47.416;7.716;2022-12-29T07:13:41;10.60;99.90
50947;DHT22;36955;47.416;7.716;2022-12-29T07:16:08;10.50;99.90
50947;DHT22;36955;47.416;7.716;2022-12-29T07:18:35;10.60;99.90
50947;DHT22;36955;47.416;7.716;2022-12-29T07:21:01;10.50;99.90
50947;DHT22;36955;47.416;7.716;2022-12-29T07:23:28;10.50;99.90
50947;DHT22;36955;47.416;7.716;2022-12-29T07:26:05;10.40;99.90
50947;DHT22;36955;47.416;7.716;2022-12-29T07:28:32;10.40;99.90
50947;DHT22;36955;47.416;7.716;2022-12-29T07:30:59;10.50;99.90
50947;DHT22;36955;47.416;7.716;2022-12-29T07:33:25;10.50;99.90
50947;DHT22;36955;47.416;7.716;2022-12-29T07:35:51;10.50;99.90
50947;DHT22;36955;47.416;7.716;2022-12-29T07:38:17;10.50;99.90
50947;DHT22;36955;47.416;7.716;2022-12-29T07:40:43;10.50;99.90
50947;DHT22;36955;47.416;7.716;2022-12-29T07:43:09;10.50;99.90
50947;DHT22;36955;47.416;7.716;2022-12-29T07:45:35;10.60;99.90
50947;DHT22;36955;47.416;7.716;2022-12-29T07:48:01;10.60;99.90
50947;DHT22;36955;47.416;7.716;2022-12-29T07:50:28;10.70;99.90
50947;DHT22;36955;47.416;7.716;2022-12-29T07:52:54;10.70;99.90
50947;DHT22;36955;47.416;7.716;2022-12-29T07:55:20;10.80;99.90
50947;DHT22;36955;47.416;7.716;2022-12-29T07:57:46;10.90;99.90
50947;DHT22;36955;47.416;7.716;2022-12-29T08:00:12;10.70;99.90
50947;DHT22;36955;47.416;7.716;2022-12-29T08:02:38;10.70;99.90
50947;DHT22;36955;47.416;7.716;2022-12-29T08:05:05;10.80;99.90
50947;DHT22;36955;47.416;7.716;2022-12-29T08:07:31;10.70;99.90
50947;DHT22;36955;47.416;7.716;2022-12-29T08:09:57;10.60;99.90
50947;DHT22;36955;47.416;7.716;2022-12-29T08:12:23;10.60;99.90
50947;DHT22;36955;47.416;7.716;2022-12-29T08:14:49;10.60;99.90
50947;DHT22;36955;47.416;7.716;2022-12-29T08:17:15;10.70;99.90
50947;DHT22;36955;47.416;7.716;2022-12-29T08:19:41;10.70;99.90
50947;DHT22;36955;47.416;7.716;2022-12-29T08:22:07;10.60;99.90
50947;DHT22;36955;47.416;7.716;2022-12-29T08:24:33;10.60;99.90
50947;DHT22;36955;47.416;7.716;2022-12-29T08:26:59;10.60;99.90
50947;DHT22;36955;47.416;7.716;2022-12-29T08:29:25;10.70;99.90
50947;DHT22;36955;47.416;7.716;2022-12-29T08:31:51;10.70;99.90
50947;DHT22;36955;47.416;7.716;2022-12-29T08:34:17;10.80;99.90
50947;DHT22;36955;47.416;7.716;2022-12-29T08:36:43;10.80;99.90
50947;DHT22;36955;47.416;7.716;2022-12-29T08:39:09;10.90;99.90
50947;DHT22;36955;47.416;7.716;2022-12-29T08:41:35;11.00;99.90
50947;DHT22;36955;47.416;7.716;2022-12-29T08:44:01;11.00;99.90
50947;DHT22;36955;47.416;7.716;2022-12-29T08:46:27;11.10;99.90
50947;DHT22;36955;47.416;7.716;2022-12-29T08:48:54;11.20;99.90
50947;DHT22;36955;47.416;7.716;2022-12-29T08:51:20;11.10;99.90
50947;DHT22;36955;47.416;7.716;2022-12-29T08:53:46;11.00;99.90
50947;DHT22;36955;47.416;7.716;2022-12-29T08:56:12;10.90;99.90
50947;DHT22;36955;47.416;7.716;2022-12-29T08:58:38;10.70;99.90
50947;DHT22;36955;47.416;7.716;2022-12-29T09:01:04;10.60;99.90
50947;DHT22;36955;47.416;7.716;2022-12-29T09:03:30;10.60;99.90
50947;DHT22;36955;47.416;7.716;2022-12-29T09:05:56;10.60;99.90
50947;DHT22;36955;47.416;7.716;2022-12-29T09:08:22;10.70;99.90
50947;DHT22;36955;47.416;7.716;2022-12-29T09:10:49;10.80;99.90
50947;DHT22;36955;47.416;7.716;2022-12-29T09:13:15;10.80;99.90
50947;DHT22;36955;47.416;7.716;2022-12-29T09:15:41;10.80;99.90
50947;DHT22;36955;47.416;7.716;2022-12-29T09:18:09;10.90;99.90
50947;DHT22;36955;47.416;7.716;2022-12-29T09:20:36;11.00;99.90
50947;DHT22;36955;47.416;7.716;2022-12-29T09:23:02;11.00;99.90
50947;DHT22;36955;47.416;7.716;2022-12-29T09:25:29;11.10;99.90
50947;DHT22;36955;47.416;7.716;2022-12-29T09:27:55;11.10;99.90
50947;DHT22;36955;47.416;7.716;2022-12-29T09:30:22;11.10;99.90
50947;DHT22;36955;47.416;7.716;2022-12-29T09:32:49;11.20;99.90
50947;DHT22;36955;47.416;7.716;2022-12-29T09:35:15;11.20;99.90
50947;DHT22;36955;47.416;7.716;2022-12-29T09:37:42;11.30;99.90
50947;DHT22;36955;47.416;7.716;2022-12-29T09:40:27;11.30;99.90
50947;DHT22;36955;47.416;7.716;2022-12-29T09:45:44;11.30;99.90
50947;DHT22;36955;47.416;7.716;2022-12-29T09:48:25;11.30;99.90
50947;DHT22;36955;47.416;7.716;2022-12-29T09:50:57;11.30;99.90
50947;DHT22;36955;47.416;7.716;2022-12-29T09:53:39;11.20;99.90
50947;DHT22;36955;47.416;7.716;2022-12-29T09:56:17;11.20;99.90
50947;DHT22;36955;47.416;7.716;2022-12-29T09:59:12;11.20;99.90
50947;DHT22;36955;47.416;7.716;2022-12-29T10:02:04;11.30;99.90
50947;DHT22;36955;47.416;7.716;2022-12-29T10:04:32;11.30;99.90
50947;DHT22;36955;47.416;7.716;2022-12-29T10:07:19;11.30;99.90
50947;DHT22;36955;47.416;7.716;2022-12-29T10:10:01;11.30;99.90
50947;DHT22;36955;47.416;7.716;2022-12-29T10:15:42;11.20;99.90
50947;DHT22;36955;47.416;7.716;2022-12-29T10:18:43;11.30;99.90
50947;DHT22;36955;47.416;7.716;2022-12-29T10:23:47;11.50;99.90
50947;DHT22;36955;47.416;7.716;2022-12-29T10:26:17;11.60;99.90
50947;DHT22;36955;47.416;7.716;2022-12-29T10:31:25;11.70;99.90
50947;DHT22;36955;47.416;7.716;2022-12-29T10:34:03;11.70;99.90
50947;DHT22;36955;47.416;7.716;2022-12-29T10:36:38;11.50;99.90
50947;DHT22;36955;47.416;7.716;2022-12-29T10:41:39;11.50;99.90
50947;DHT22;36955;47.416;7.716;2022-12-29T10:44:11;11.50;99.90
50947;DHT22;36955;47.416;7.716;2022-12-29T10:46:39;11.50;99.90
50947;DHT22;36955;47.416;7.716;2022-12-29T10:49:14;11.30;99.90
50947;DHT22;36955;47.416;7.716;2022-12-29T10:51:43;11.10;99.90
50947;DHT22;36955;47.416;7.716;2022-12-29T10:54:26;11.10;99.90
50947;DHT22;36955;47.416;7.716;2022-12-29T10:59:24;11.00;99.90
50947;DHT22;36955;47.416;7.716;2022-12-29T11:07:33;10.90;99.90
50947;DHT22;36955;47.416;7.716;2022-12-29T11:13:10;10.90;99.90
50947;DHT22;36955;47.416;7.716;2022-12-29T11:15:48;10.90;99.90
50947;DHT22;36955;47.416;7.716;2022-12-29T11:18:36;10.90;99.90
50947;DHT22;36955;47.416;7.716;2022-12-29T11:21:05;10.90;99.90
50947;DHT22;36955;47.416;7.716;2022-12-29T11:23:38;11.00;99.90
50947;DHT22;36955;47.416;7.716;2022-12-29T11:28:37;11.10;99.90
50947;DHT22;36955;47.416;7.716;2022-12-29T11:31:05;11.20;99.90
50947;DHT22;36955;47.416;7.716;2022-12-29T11:33:32;11.20;99.90
50947;DHT22;36955;47.416;7.716;2022-12-29T11:36:14;11.20;99.90
50947;DHT22;36955;47.416;7.716;2022-12-29T11:38:45;11.20;99.90
50947;DHT22;36955;47.416;7.716;2022-12-29T11:41:18;11.20;99.90
50947;DHT22;36955;47.416;7.716;2022-12-29T11:43:45;11.30;99.90
50947;DHT22;36955;47.416;7.716;2022-12-29T11:46:17;11.30;99.90
50947;DHT22;36955;47.416;7.716;2022-12-29T11:48:44;11.30;99.90
50947;DHT22;36955;47.416;7.716;2022-12-29T11:51:12;11.30;99.90
50947;DHT22;36955;47.416;7.716;2022-12-29T11:53:49;11.40;99.90
50947;DHT22;36955;47.416;7.716;2022-12-29T11:56:32;11.50;99.90
50947;DHT22;36955;47.416;7.716;2022-12-29T11:59:29;11.50;99.90
50947;DHT22;36955;47.416;7.716;2022-12-29T12:02:26;11.60;99.90
50947;DHT22;36955;47.416;7.716;2022-12-29T12:04:52;11.60;99.90
50947;DHT22;36955;47.416;7.716;2022-12-29T12:07:36;11.60;99.90
50947;DHT22;36955;47.416;7.716;2022-12-29T12:10:04;11.60;99.90
50947;DHT22;36955;47.416;7.716;2022-12-29T12:12:47;11.70;99.90
50947;DHT22;36955;47.416;7.716;2022-12-29T12:15:39;11.70;99.90
50947;DHT22;36955;47.416;7.716;2022-12-29T12:21:05;11.70;99.90
50947;DHT22;36955;47.416;7.716;2022-12-29T12:31:26;11.90;99.90
50947;DHT22;36955;47.416;7.716;2022-12-29T12:33:57;11.90;99.90
50947;DHT22;36955;47.416;7.716;2022-12-29T12:50:19;11.90;99.90
50947;DHT22;36955;47.416;7.716;2022-12-29T12:53:01;11.90;99.90
50947;DHT22;36955;47.416;7.716;2022-12-29T12:58:53;11.80;99.90
50947;DHT22;36955;47.416;7.716;2022-12-29T13:01:37;11.80;99.90
50947;DHT22;36955;47.416;7.716;2022-12-29T13:09:57;11.80;99.90
50947;DHT22;36955;47.416;7.716;2022-12-29T13:15:42;11.80;99.90
50947;DHT22;36955;47.416;7.716;2022-12-29T13:18:30;11.80;99.90
50947;DHT22;36955;47.416;7.716;2022-12-29T13:21:16;11.80;99.90
50947;DHT22;36955;47.416;7.716;2022-12-29T13:26:30;11.80;99.90
50947;DHT22;36955;47.416;7.716;2022-12-29T13:29:18;11.80;99.90
50947;DHT22;36955;47.416;7.716;2022-12-29T13:37:32;11.70;99.90
50947;DHT22;36955;47.416;7.716;2022-12-29T13:40:12;11.70;99.90
50947;DHT22;36955;47.416;7.716;2022-12-29T13:42:40;11.70;99.90
50947;DHT22;36955;47.416;7.716;2022-12-29T13:45:12;11.60;99.90
50947;DHT22;36955;47.416;7.716;2022-12-29T13:47:40;11.60;99.90
50947;DHT22;36955;47.416;7.716;2022-12-29T13:50:19;11.60;99.90
50947;DHT22;36955;47.416;7.716;2022-12-29T13:55:35;11.60;99.90
50947;DHT22;36955;47.416;7.716;2022-12-29T14:00:38;11.50;99.90
50947;DHT22;36955;47.416;7.716;2022-12-29T14:03:23;11.50;99.90
50947;DHT22;36955;47.416;7.716;2022-12-29T14:08:38;11.40;99.90
50947;DHT22;36955;47.416;7.716;2022-12-29T14:11:10;11.40;99.90
50947;DHT22;36955;47.416;7.716;2022-12-29T14:13:41;11.40;99.90
50947;DHT22;36955;47.416;7.716;2022-12-29T14:16:25;11.40;99.90
50947;DHT22;36955;47.416;7.716;2022-12-29T14:18:52;11.30;99.90
50947;DHT22;36955;47.416;7.716;2022-12-29T14:21:22;11.30;99.90
50947;DHT22;36955;47.416;7.716;2022-12-29T14:23:50;11.30;99.90
50947;DHT22;36955;47.416;7.716;2022-12-29T14:30:02;11.30;99.90
50947;DHT22;36955;47.416;7.716;2022-12-29T14:32:02;11.30;99.90
50947;DHT22;36955;47.416;7.716;2022-12-29T14:34:43;11.30;99.90
50947;DHT22;36955;47.416;7.716;2022-12-29T14:37:27;11.30;99.90
50947;DHT22;36955;47.416;7.716;2022-12-29T14:43:12;11.20;99.90
50947;DHT22;36955;47.416;7.716;2022-12-29T14:45:41;11.30;99.90
50947;DHT22;36955;47.416;7.716;2022-12-29T14:48:32;11.30;99.90
50947;DHT22;36955;47.416;7.716;2022-12-29T14:50:59;11.30;99.90
50947;DHT22;36955;47.416;7.716;2022-12-29T14:53:55;11.30;99.90
50947;DHT22;36955;47.416;7.716;2022-12-29T14:56:28;11.30;99.90
50947;DHT22;36955;47.416;7.716;2022-12-29T14:59:01;11.20;99.90
50947;DHT22;36955;47.416;7.716;2022-12-29T15:04:00;11.00;99.90
50947;DHT22;36955;47.416;7.716;2022-12-29T15:06:30;11.00;99.90
50947;DHT22;36955;47.416;7.716;2022-12-29T15:16:54;10.80;99.90
50947;DHT22;36955;47.416;7.716;2022-12-29T15:19:24;10.80;99.90
50947;DHT22;36955;47.416;7.716;2022-12-29T15:21:50;10.90;99.90
50947;DHT22;36955;47.416;7.716;2022-12-29T15:24:17;10.90;99.90
50947;DHT22;36955;47.416;7.716;2022-12-29T15:26:50;10.90;99.90
50947;DHT22;36955;47.416;7.716;2022-12-29T15:29:42;10.90;99.90
50947;DHT22;36955;47.416;7.716;2022-12-29T15:34:45;10.80;99.90
50947;DHT22;36955;47.416;7.716;2022-12-29T15:37:24;10.80;99.90
50947;DHT22;36955;47.416;7.716;2022-12-29T15:39:51;10.80;99.90
50947;DHT22;36955;47.416;7.716;2022-12-29T15:45:07;10.80;99.90
50947;DHT22;36955;47.416;7.716;2022-12-29T15:47:36;10.70;99.90
50947;DHT22;36955;47.416;7.716;2022-12-29T15:50:26;10.70;99.90
50947;DHT22;36955;47.416;7.716;2022-12-29T15:52:50;10.70;99.90
50947;DHT22;36955;47.416;7.716;2022-12-29T15:55:34;10.60;99.90
50947;DHT22;36955;47.416;7.716;2022-12-29T15:58:04;10.60;99.90
50947;DHT22;36955;47.416;7.716;2022-12-29T16:02:59;10.60;99.90
50947;DHT22;36955;47.416;7.716;2022-12-29T16:05:35;10.60;99.90
50947;DHT22;36955;47.416;7.716;2022-12-29T16:08:03;10.60;99.90
50947;DHT22;36955;47.416;7.716;2022-12-29T16:10:38;10.60;99.90
50947;DHT22;36955;47.416;7.716;2022-12-29T16:16:01;10.60;99.90
50947;DHT22;36955;47.416;7.716;2022-12-29T16:18:32;10.60;99.90
50947;DHT22;36955;47.416;7.716;2022-12-29T16:21:00;10.60;99.90
50947;DHT22;36955;47.416;7.716;2022-12-29T16:23:28;10.60;99.90
50947;DHT22;36955;47.416;7.716;2022-12-29T16:25:56;10.50;99.90
50947;DHT22;36955;47.416;7.716;2022-12-29T16:28:24;10.50;99.90
50947;DHT22;36955;47.416;7.716;2022-12-29T16:30:58;10.40;99.90
50947;DHT22;36955;47.416;7.716;2022-12-29T16:33:45;10.40;99.90
50947;DHT22;36955;47.416;7.716;2022-12-29T16:38:48;10.30;99.90
50947;DHT22;36955;47.416;7.716;2022-12-29T16:41:28;10.30;99.90
50947;DHT22;36955;47.416;7.716;2022-12-29T16:49:40;10.30;99.90
50947;DHT22;36955;47.416;7.716;2022-12-29T16:52:18;10.30;99.90
50947;DHT22;36955;47.416;7.716;2022-12-29T16:54:51;10.20;99.90
50947;DHT22;36955;47.416;7.716;2022-12-29T16:57:27;10.10;99.90
50947;DHT22;36955;47.416;7.716;2022-12-29T16:59:59;10.10;99.90
50947;DHT22;36955;47.416;7.716;2022-12-29T17:02:28;10.10;99.90
50947;DHT22;36955;47.416;7.716;2022-12-29T17:04:54;9.90;99.90
50947;DHT22;36955;47.416;7.716;2022-12-29T17:07:25;9.80;99.90
50947;DHT22;36955;47.416;7.716;2022-12-29T17:09:52;9.60;99.90
50947;DHT22;36955;47.416;7.716;2022-12-29T17:12:26;9.60;99.90
50947;DHT22;36955;47.416;7.716;2022-12-29T17:14:57;9.50;99.90
50947;DHT22;36955;47.416;7.716;2022-12-29T17:17:44;9.50;99.90
50947;DHT22;36955;47.416;7.716;2022-12-29T17:20:22;9.40;99.90
50947;DHT22;36955;47.416;7.716;2022-12-29T17:22:49;9.30;99.90
50947;DHT22;36955;47.416;7.716;2022-12-29T17:25:18;9.20;99.90
50947;DHT22;36955;47.416;7.716;2022-12-29T17:27:55;9.10;99.90
50947;DHT22;36955;47.416;7.716;2022-12-29T17:30:24;9.00;99.90
50947;DHT22;36955;47.416;7.716;2022-12-29T17:32:52;9.00;99.90
50947;DHT22;36955;47.416;7.716;2022-12-29T17:35:20;8.90;99.90
50947;DHT22;36955;47.416;7.716;2022-12-29T17:37:47;8.90;99.90
50947;DHT22;36955;47.416;7.716;2022-12-29T17:40:16;8.90;99.90
50947;DHT22;36955;47.416;7.716;2022-12-29T17:42:47;8.90;99.90
50947;DHT22;36955;47.416;7.716;2022-12-29T17:45:17;8.90;99.90
50947;DHT22;36955;47.416;7.716;2022-12-29T17:47:45;8.90;99.90
50947;DHT22;36955;47.416;7.716;2022-12-29T17:50:17;8.90;99.90
50947;DHT22;36955;47.416;7.716;2022-12-29T17:52:50;8.90;99.90
50947;DHT22;36955;47.416;7.716;2022-12-29T17:55:18;8.90;99.90
50947;DHT22;36955;47.416;7.716;2022-12-29T17:57:45;8.80;99.90
50947;DHT22;36955;47.416;7.716;2022-12-29T18:00:16;8.80;99.90
50947;DHT22;36955;47.416;7.716;2022-12-29T18:02:43;8.70;99.90
50947;DHT22;36955;47.416;7.716;2022-12-29T18:05:29;8.60;99.90
50947;DHT22;36955;47.416;7.716;2022-12-29T18:07:57;8.50;99.90
50947;DHT22;36955;47.416;7.716;2022-12-29T18:10:25;8.50;99.90
50947;DHT22;36955;47.416;7.716;2022-12-29T18:12:53;8.50;99.90
50947;DHT22;36955;47.416;7.716;2022-12-29T18:15:23;8.40;99.90
50947;DHT22;36955;47.416;7.716;2022-12-29T18:17:54;8.50;99.90
50947;DHT22;36955;47.416;7.716;2022-12-29T18:20:23;8.50;99.90
50947;DHT22;36955;47.416;7.716;2022-12-29T18:22:49;8.60;99.90